Terminal Aerodrome Forecast
Issued by NWS Boston, MA

Home | Current Version | Previous Version | Text Only | Print | Product List | Glossary On
Versions: 1 2 3 4 5 6 7 8 9 10 11 12 13 14 15 16 17 18 19
000
FTUS41 KBOX 241732
TAFORH
TAF
KORH 241732Z 2418/2518 24005KT P6SM BKN250
     FM250100 14004KT P6SM BKN250
     FM250900 06008KT P6SM OVC050
     FM251200 06009KT P6SM OVC008
     FM251500 07011G19KT 1SM -RA BR OVC003=

USA.gov is the U.S. government's official web portal to all federal, state and local government web resources and services.